Skip Navigation Links
NOAA logo - Click to go to the NOAA homepage
NOAA's National Weather Service
Alaska Aviation Weather Unit
  NWS logo - Click to go to the NWS homepage
Left Navbar Graphic     15 AKDT = 23 GMT

   
NOAA is celebrating 200 years of science, service, and stewardship. Visit the NOAA 200th celebration Web site to learn more.
USA.gov is the U.S. Government's official Web portal to all Federal, state and local government Web resources and services.
Facebook
NWS on Facebook

Important Change Regarding the AAWU Web Presence

 

Over the last several months, the AAWU has been working to navigate its webpages to a nationally supported server. Security, as well as other needs, have necessitated the change.  We have been given an extension for the site changeover while we diligently work at addressing feedback received. As of July 14, 2017, aawu.arh.noaa.gov will be discontinued. The new AAWU web address is weather.gov/aawu. It is now live and will run in-parallel with the old site until it is discontinued on July 14, 2017. Please continue to send any feedback or questions regarding the new webpages to nws.ar.aawu.webauthors@noaa.gov.  Thank you for your patience during this time of transition.
AAWU Home :: Display TAF Add Bookmark
METAR PAPB 191753Z AUTO 07004KT 10SM CLR M03/M04 A2975 RMK AO2 SLP063
     T10331039 10011 21039 58028 TSNO=

METAR PAPB 191853Z AUTO 09004KT 10SM CLR M01/M02 A2972 RMK AO2 SLP051
     T10061017 TSNO=

METAR PAPB 191953Z AUTO 10006KT 10SM CLR 01/M01 A2969 RMK AO2 SLP041
     T00111006 TSNO=

METAR PAPB 192053Z AUTO 09004KT 10SM CLR 02/01 A2967 RMK AO2 SLP034
     T00220011 56029 TSNO=

METAR PAPB 192153Z AUTO 11006KT 10SM CLR 04/00 A2964 RMK AO2 SLP024
     T00390000 TSNO=

METAR PAPB 192253Z AUTO 12009KT 10SM SCT046 04/M01 A2960 RMK AO2 SLP013
     T00441011 TSNO=


NOAA's National Weather Service
Alaska Aviation Weather Unit
6930 Sand Lake Road
Anchorage, AK 99502-1845
Disclaimer
Credits
Glossary
Privacy Policy
About Us
Career Opportunities
Contact AAWU Internet Services Site last modified: April, 17th 2012